Accueil
METAR-TAF:

METAR-TAF

Aéroports :

Bristol, Angleterre

Aéroport de Bristol

latitude: 51-23N, longitude: 002-43W, altitude: 189 m

Observation

Le bulletin a été fait il y a 38 minutes, à 12:50 UTC
Vent 15 kt de nord-est
Température 3°C
Humidité 65%
Pression 1020 hPa
Visibilité 10 km ou plus

METAR: EGGD 241250Z AUTO 05015KT 9999 NCD 03/M03 Q1020

Heure: 13:28 (13:28 UTC)

Prévision

Le bulletin a été fait il y a 2 heures et 18 minutes, à 11:10 UTC
Prévision valable du 24 à 12 UTC au 25 à 12 UTC
Vent 14 kt de est/nord-est
Visibilité 10 km ou plus
pas de nuages en-dessous de 1500 mètres et pas de cumulonimbus.
Probabilité 40% :
Temporairement
du 25 à 06 UTC au 25 à 12 UTC
Vent 17 kt de est/nord-est avec des rafales jusqu'à 27 kt

TAF: EGGD 241110Z 2412/2512 06014KT CAVOK PROB40 TEMPO 2506/2512 07017G27KT

Observations et prévisions météorologiques de plus de 4000 aéroports (messages METAR et TAF).

Les stations disponibles sont représentées par des disques jaunes et rouges sur la carte.

Passer la souris dessus pour voir le nom de la station.

Cliquer dessus pour voir les observations et prévisions météorologiques.

Pour changer de carte: cliquez sur les boutons verts avec une croix noire pour zoomer, sur le bouton vert avec un tiret pour effectuer un zoom arrière, ou sur les flèches vertes pour les cartes adjacentes.


METAR-TAF: